Time;durP1;ratioP1;P1;durP2;ratioP2;P2;SDS_P1;SDS_P2;PMS_P1;PMS_P2;Temp;Humidity;BMP_temperature;BMP_pressure;BME280_temperature;BME280_humidity;BME280_pressure;Samples;Min_cycle;Max_cycle;Signal;HPM_P1;HPM_P2
2022/11/10 00:00:02;;;;;;;380.60;160.75;;;;;;;9.39;88.18;100370.78;353490;28;895;-72
2022/11/10 00:00:13;;;;;;;378.70;161.82;;;;;;;9.38;88.21;100365.59;351751;28;1580;-71
2022/11/10 00:00:23;;;;;;;383.17;164.38;;;;;;;9.39;88.22;100370.78;351750;28;1321;-71
2022/11/10 00:00:34;;;;;;;379.85;162.00;;;;;;;9.37;88.24;100366.50;352486;28;1239;-71
2022/11/10 00:00:44;;;;;;;378.70;158.90;;;;;;;9.32;87.81;100367.47;348705;28;1199;-71
2022/11/10 00:00:55;;;;;;;380.52;160.10;;;;;;;9.31;88.41;100365.75;347984;28;1571;-72
2022/11/10 00:01:06;;;;;;;384.63;159.73;;;;;;;9.31;88.42;100370.13;347418;28;1504;-72
2022/11/10 00:01:16;;;;;;;384.45;160.27;;;;;;;9.29;88.52;100367.53;346161;28;1203;-71
2022/11/10 00:01:27;;;;;;;384.27;159.38;;;;;;;9.29;88.44;100371.91;346157;28;1495;-71
2022/11/10 00:01:37;;;;;;;382.13;160.57;;;;;;;9.30;88.78;100373.63;347211;28;1205;-71
2022/11/10 00:01:47;;;;;;;383.85;161.23;;;;;;;9.29;88.31;100372.75;347530;28;923;-71
2022/11/10 00:01:58;;;;;;;381.20;160.80;;;;;;;9.29;88.40;100366.69;349037;28;950;-70
2022/11/10 00:02:08;;;;;;;385.57;162.17;;;;;;;9.29;88.30;100366.69;344498;28;2134;-72
2022/11/10 00:02:19;;;;;;;379.63;160.52;;;;;;;9.31;88.54;100370.13;344883;28;910;-71
2022/11/10 00:02:29;;;;;;;377.40;162.07;;;;;;;9.30;88.33;100374.47;344932;28;1857;-71
2022/11/10 00:02:42;;;;;;;376.85;161.95;;;;;;;9.28;88.31;100370.19;345011;28;1397;-71
2022/11/10 00:02:52;;;;;;;381.70;160.40;;;;;;;9.27;88.70;100368.47;345651;28;1820;-71
2022/11/10 00:03:04;;;;;;;387.87;159.00;;;;;;;9.25;88.53;100362.41;346260;28;972;-72
2022/11/10 00:03:14;;;;;;;389.42;160.77;;;;;;;9.25;88.70;100368.50;347550;28;943;-71
2022/11/10 00:03:27;;;;;;;388.63;163.27;;;;;;;9.29;88.68;100371.91;346546;28;903;-71
2022/11/10 00:03:38;;;;;;;386.42;164.63;;;;;;;9.29;88.66;100374.50;348574;28;2324;-71
2022/11/10 00:03:49;;;;;;;382.98;163.52;;;;;;;9.28;89.23;100368.44;347445;28;1953;-71
2022/11/10 00:04:01;;;;;;;380.75;157.40;;;;;;;9.29;89.00;100371.91;346127;28;1222;-71
2022/11/10 00:04:11;;;;;;;382.42;156.45;;;;;;;9.30;88.97;100371.00;346250;28;1762;-71
2022/11/10 00:04:21;;;;;;;386.37;156.47;;;;;;;9.31;89.01;100372.72;344749;28;1011;-71
2022/11/10 00:04:32;;;;;;;387.50;158.57;;;;;;;9.31;89.17;100367.50;346145;28;1480;-71
2022/11/10 00:04:42;;;;;;;384.90;156.23;;;;;;;9.31;88.88;100370.97;347499;28;1839;-71
2022/11/10 00:04:52;;;;;;;382.93;157.03;;;;;;;9.30;89.01;100360.56;347590;28;927;-71
2022/11/10 00:05:03;;;;;;;381.40;158.10;;;;;;;9.31;89.27;100363.13;346115;28;1253;-71
2022/11/10 00:05:14;;;;;;;383.13;160.88;;;;;;;9.37;89.18;100367.38;346520;28;3890;-70
2022/11/10 00:05:24;;;;;;;381.80;162.43;;;;;;;9.37;89.29;100367.38;344495;28;5040;-72
2022/11/10 00:05:36;;;;;;;382.60;161.98;;;;;;;9.38;89.38;100366.47;345825;28;2715;-71
2022/11/10 00:05:46;;;;;;;387.33;163.45;;;;;;;9.37;89.20;100369.97;344496;28;2462;-71
2022/11/10 00:05:57;;;;;;;385.48;161.45;;;;;;;9.35;89.74;100376.97;343319;28;5226;-71
2022/11/10 00:06:08;;;;;;;383.67;158.80;;;;;;;9.36;89.54;100367.41;343171;28;1264;-71
2022/11/10 00:06:18;;;;;;;379.38;155.63;;;;;;;9.35;89.70;100366.53;341585;28;1679;-71
2022/11/10 00:06:28;;;;;;;383.23;158.52;;;;;;;9.36;89.89;100372.63;343570;28;1080;-71
2022/11/10 00:06:43;;;;;;;386.47;160.10;;;;;;;9.35;89.43;100366.53;343338;28;1697;-71
2022/11/10 00:06:53;;;;;;;387.48;160.40;;;;;;;9.36;89.87;100375.22;340801;29;1548;-71
2022/11/10 00:07:04;;;;;;;384.43;158.00;;;;;;;9.38;89.57;100376.06;340333;28;1994;-70
2022/11/10 00:07:14;;;;;;;382.65;160.27;;;;;;;9.37;89.79;100369.97;341137;28;2350;-70
2022/11/10 00:07:25;;;;;;;383.10;159.83;;;;;;;9.34;89.86;100375.28;339512;29;1209;-70
2022/11/10 00:07:36;;;;;;;387.10;162.10;;;;;;;9.37;89.77;100374.34;336534;29;2347;-70
2022/11/10 00:07:46;;;;;;;389.25;162.60;;;;;;;9.34;89.65;100375.28;338020;29;1182;-71
2022/11/10 00:07:57;;;;;;;389.57;162.73;;;;;;;9.34;89.83;100375.28;337000;29;1000;-71
2022/11/10 00:08:09;;;;;;;390.35;162.27;;;;;;;9.33;89.69;100363.09;337210;29;1378;-70
2022/11/10 00:08:19;;;;;;;389.58;162.30;;;;;;;9.32;89.71;100367.47;334666;29;1590;-69
2022/11/10 00:08:30;;;;;;;385.75;160.70;;;;;;;9.34;89.81;100370.03;331529;29;1342;-71
2022/11/10 00:08:40;;;;;;;381.67;158.93;;;;;;;9.34;89.70;100370.03;335704;29;1560;-71
2022/11/10 00:08:50;;;;;;;381.30;158.77;;;;;;;9.36;89.55;100365.66;335964;29;1458;-71
2022/11/10 00:09:01;;;;;;;378.70;156.03;;;;;;;9.37;89.25;100369.13;336796;29;1140;-70
2022/11/10 00:09:11;;;;;;;379.50;156.20;;;;;;;9.36;88.99;100377.84;334481;29;819;-71
2022/11/10 00:09:22;;;;;;;378.98;155.13;;;;;;;9.37;89.38;100372.59;332847;29;1246;-72
2022/11/10 00:09:32;;;;;;;376.97;155.63;;;;;;;9.37;89.28;100372.59;330041;29;1564;-72
2022/11/10 00:09:42;;;;;;;374.10;154.85;;;;;;;9.36;89.27;100370.88;329664;29;1644;-72
2022/11/10 00:09:53;;;;;;;380.47;157.50;;;;;;;9.36;89.24;100373.47;331045;29;1611;-70
2022/11/10 00:10:04;;;;;;;386.40;158.70;;;;;;;9.36;89.31;100370.88;331718;29;1798;-70
2022/11/10 00:10:15;;;;;;;388.25;160.35;;;;;;;9.37;89.32;100363.88;332709;29;2220;-70
2022/11/10 00:10:25;;;;;;;384.17;159.55;;;;;;;9.38;89.03;100371.69;329480;30;882;-72
2022/11/10 00:10:57;;;;;;;383.87;160.57;;;;;;;9.33;89.38;100369.19;324957;30;2214;-71
2022/11/10 00:11:07;;;;;;;384.33;163.52;;;;;;;9.32;88.93;100372.69;327164;30;1311;-71
2022/11/10 00:11:17;;;;;;;379.50;158.33;;;;;;;9.31;89.14;100365.75;327295;30;1329;-71
2022/11/10 00:11:28;;;;;;;371.58;154.85;;;;;;;9.32;89.32;100366.59;326298;30;1778;-72
2022/11/10 00:11:38;;;;;;;373.97;154.63;;;;;;;9.32;89.08;100364.00;325172;30;1826;-71
2022/11/10 00:11:49;;;;;;;375.70;153.75;;;;;;;9.32;89.23;100364.00;323664;30;2300;-71
2022/11/10 00:11:59;;;;;;;377.83;154.70;;;;;;;9.30;89.29;100371.88;323219;30;1533;-71
2022/11/10 00:12:09;;;;;;;377.90;156.47;;;;;;;9.30;89.45;100366.66;327795;30;2521;-70
2022/11/10 00:12:20;;;;;;;377.83;157.20;;;;;;;9.29;89.17;100369.28;327024;30;2514;-71
2022/11/10 00:12:31;;;;;;;382.05;159.20;;;;;;;9.29;89.03;100367.53;323222;30;2782;-71
2022/11/10 00:12:42;;;;;;;383.17;156.95;;;;;;;9.29;88.96;100366.69;324030;30;1491;-71
2022/11/10 00:12:52;;;;;;;383.87;156.47;;;;;;;9.30;89.17;100371.00;324178;30;2691;-70
2022/11/10 00:13:02;;;;;;;386.00;156.27;;;;;;;9.28;88.90;100365.81;322939;30;1908;-70
2022/11/10 00:13:13;;;;;;;385.23;160.67;;;;;;;9.28;89.24;100364.97;324418;30;2766;-71
2022/11/10 00:13:28;;;;;;;387.30;162.40;;;;;;;9.28;89.14;100367.56;323233;30;1436;-71
2022/11/10 00:17:05;;;;;;;385.45;159.38;;;;;;;9.32;89.29;100364.00;300207;32;4964;-71
2022/11/10 00:17:15;;;;;;;384.58;160.40;;;;;;;9.31;89.54;100365.75;299369;32;5004;-71
2022/11/10 00:17:26;;;;;;;389.93;164.07;;;;;;;9.33;89.19;100368.31;296206;33;855;-71
2022/11/10 00:17:36;;;;;;;392.45;166.30;;;;;;;9.33;89.23;100360.50;293067;33;3609;-71
2022/11/10 00:17:47;;;;;;;392.27;168.13;;;;;;;9.34;89.44;100362.22;292759;33;3410;-71
2022/11/10 00:18:00;;;;;;;386.05;164.13;;;;;;;9.32;89.21;100367.47;297028;33;1478;-71
2022/11/10 00:18:10;;;;;;;381.15;161.77;;;;;;;9.33;89.31;100369.19;294326;33;2185;-71
2022/11/10 00:18:21;;;;;;;384.23;163.90;;;;;;;9.33;89.61;100368.31;293426;33;5420;-71
2022/11/10 00:18:31;;;;;;;382.27;163.87;;;;;;;9.32;89.12;100366.59;291296;33;5982;-71
2022/11/10 00:18:42;;;;;;;385.38;165.10;;;;;;;9.32;89.88;100372.69;292157;33;1222;-70
2022/11/10 00:18:52;;;;;;;385.20;163.97;;;;;;;9.30;89.78;100363.16;293325;33;6404;-70
2022/11/10 00:19:02;;;;;;;387.10;165.20;;;;;;;9.30;89.46;100365.78;291617;33;7096;-70
2022/11/10 00:19:13;;;;;;;387.27;164.77;;;;;;;9.29;89.91;100367.53;291181;34;2307;-70
2022/11/10 00:19:23;;;;;;;391.70;163.43;;;;;;;9.29;89.76;100374.50;293977;33;6712;-72
2022/11/10 00:19:34;;;;;;;393.77;166.43;;;;;;;9.29;89.87;100366.69;292476;33;6821;-71
2022/11/10 00:19:44;;;;;;;398.47;169.43;;;;;;;9.29;89.67;100361.47;292377;33;845;-71
2022/11/10 00:19:54;;;;;;;391.13;168.82;;;;;;;9.31;89.69;100364.88;294602;33;4719;-71
2022/11/10 00:20:05;;;;;;;390.97;164.93;;;;;;;9.30;89.62;100371.00;291273;33;4968;-71
2022/11/10 00:20:16;;;;;;;383.40;162.77;;;;;;;9.30;89.58;100368.41;289187;33;6363;-71
2022/11/10 00:20:26;;;;;;;384.58;165.07;;;;;;;9.29;89.86;100367.53;290282;34;998;-70
2022/11/10 00:20:37;;;;;;;384.97;166.63;;;;;;;9.31;89.66;100367.50;292321;33;7373;-70
2022/11/10 00:20:47;;;;;;;389.67;168.38;;;;;;;9.31;89.64;100365.75;290046;33;8416;-71
2022/11/10 00:21:08;;;;;;;390.27;168.47;;;;;;;9.32;90.04;100366.59;288418;34;900;-70
2022/11/10 00:21:19;;;;;;;390.40;163.00;;;;;;;9.30;89.35;100365.78;283658;34;8598;-70
2022/11/10 00:21:29;;;;;;;389.98;162.25;;;;;;;9.28;89.47;100365.81;282867;35;873;-71
2022/11/10 00:21:39;;;;;;;389.10;164.43;;;;;;;9.28;89.65;100364.97;282779;34;8927;-71
2022/11/10 00:21:50;;;;;;;389.30;166.35;;;;;;;9.28;89.73;100360.59;281113;34;9616;-71
2022/11/10 00:22:00;;;;;;;386.47;165.07;;;;;;;9.28;89.56;100364.97;280912;34;6788;-71
2022/11/10 00:22:11;;;;;;;384.25;161.52;;;;;;;9.27;89.78;100369.31;283196;34;1976;-71
2022/11/10 00:22:21;;;;;;;385.00;161.57;;;;;;;9.26;89.85;100366.75;280868;35;7377;-71
2022/11/10 00:24:07;;;;;;;376.46;157.63;;;;;;;9.24;89.63;100358.09;2484780;27;20478;-72
2022/11/10 00:24:17;;;;;;;388.17;167.97;;;;;;;9.25;89.84;100359.81;350318;28;3244;-72
2022/11/10 00:24:28;;;;;;;388.33;167.50;;;;;;;9.25;89.69;100365.03;348045;28;1810;-72
2022/11/10 00:24:38;;;;;;;385.30;168.33;;;;;;;9.26;89.46;100362.38;347604;28;1635;-72
2022/11/10 00:24:49;;;;;;;384.07;167.10;;;;;;;9.26;89.62;100362.38;344859;28;1385;-71
2022/11/10 00:24:59;;;;;;;382.70;162.53;;;;;;;9.26;89.82;100367.59;346041;28;2077;-71
2022/11/10 00:25:09;;;;;;;382.73;160.07;;;;;;;9.28;89.71;100365.81;344838;28;1259;-71
2022/11/10 00:25:20;;;;;;;383.03;160.13;;;;;;;9.29;89.39;100364.06;346276;28;928;-71
2022/11/10 00:25:30;;;;;;;384.15;161.57;;;;;;;9.26;89.50;100361.53;347382;28;1566;-72
2022/11/10 00:25:41;;;;;;;388.97;161.50;;;;;;;9.25;89.70;100365.03;346221;28;957;-71
2022/11/10 00:25:51;;;;;;;392.35;161.10;;;;;;;9.23;89.46;100362.47;344814;28;1315;-71
2022/11/10 00:26:02;;;;;;;391.83;160.90;;;;;;;9.22;89.16;100365.09;344693;28;1181;-71
2022/11/10 00:26:16;;;;;;;382.27;161.48;;;;;;;9.22;89.48;100362.50;344680;28;1646;-71
2022/11/10 00:26:27;;;;;;;383.00;166.73;;;;;;;9.23;89.78;100358.97;346698;28;2085;-71
2022/11/10 00:26:37;;;;;;;384.87;168.93;;;;;;;9.20;89.02;100370.34;346245;28;915;-71
2022/11/10 00:26:48;;;;;;;386.05;168.32;;;;;;;9.20;89.29;100364.28;347312;28;821;-71
2022/11/10 00:26:58;;;;;;;386.93;165.97;;;;;;;9.18;89.14;100368.69;348829;28;1290;-71
2022/11/10 00:27:08;;;;;;;387.20;166.47;;;;;;;9.15;89.55;100371.34;346154;28;1217;-71
2022/11/10 00:27:19;;;;;;;387.30;166.65;;;;;;;9.13;89.51;100365.31;347725;28;876;-71
2022/11/10 00:27:31;;;;;;;386.90;164.43;;;;;;;9.12;89.40;100363.59;346573;28;1781;-71
2022/11/10 00:27:41;;;;;;;384.15;161.85;;;;;;;9.12;89.16;100368.81;350059;28;1058;-71
2022/11/10 00:27:51;;;;;;;388.33;162.93;;;;;;;9.12;89.19;100363.59;351331;28;880;-71
2022/11/10 00:28:02;;;;;;;387.97;166.73;;;;;;;9.14;89.14;100367.03;348491;28;1672;-71
2022/11/10 00:28:12;;;;;;;388.77;164.23;;;;;;;9.16;89.34;100362.63;347741;28;1047;-72
2022/11/10 00:28:23;;;;;;;385.40;163.30;;;;;;;9.14;89.01;100362.66;347640;28;1285;-72
2022/11/10 00:28:33;;;;;;;385.17;162.90;;;;;;;9.14;89.40;100369.63;347043;28;1412;-70
2022/11/10 00:28:43;;;;;;;390.05;163.98;;;;;;;9.15;89.30;100366.13;344818;28;1498;-71
2022/11/10 00:28:54;;;;;;;394.60;163.57;;;;;;;9.17;89.69;100364.34;344975;28;861;-71
2022/11/10 00:29:04;;;;;;;393.27;162.90;;;;;;;9.18;89.35;100364.31;343473;28;1236;-71
2022/11/10 00:29:15;;;;;;;385.57;163.97;;;;;;;9.19;89.28;100370.41;343469;28;1361;-71
2022/11/10 00:29:25;;;;;;;383.65;164.27;;;;;;;9.19;89.11;100365.16;344777;28;1374;-71
2022/11/10 00:29:36;;;;;;;387.30;165.00;;;;;;;9.19;88.88;100365.16;348838;28;1321;-71
2022/11/10 00:29:46;;;;;;;388.65;166.15;;;;;;;9.19;88.89;100371.25;346072;28;1843;-71
2022/11/10 00:29:56;;;;;;;386.73;163.57;;;;;;;9.17;89.33;100367.81;345087;28;1113;-71
2022/11/10 00:30:08;;;;;;;386.40;162.73;;;;;;;9.14;89.37;100364.41;343576;28;828;-71
2022/11/10 00:30:19;;;;;;;392.02;164.05;;;;;;;9.13;89.58;100362.69;341184;28;1496;-71
2022/11/10 00:30:29;;;;;;;394.67;166.53;;;;;;;9.11;89.13;100357.50;339323;29;1097;-71
2022/11/10 00:30:39;;;;;;;395.02;165.50;;;;;;;9.12;89.59;100363.59;338538;29;1705;-72
2022/11/10 00:30:50;;;;;;;390.20;166.23;;;;;;;9.12;89.70;100363.59;340447;28;1369;-72
2022/11/10 00:31:04;;;;;;;386.50;164.50;;;;;;;9.08;89.74;100364.59;340847;29;936;-72
2022/11/10 00:31:14;;;;;;;383.02;165.63;;;;;;;9.09;89.63;100361.09;343616;28;1014;-70
2022/11/10 00:31:27;;;;;;;382.90;164.93;;;;;;;9.10;89.80;100360.19;343586;28;819;-70
2022/11/10 00:31:37;;;;;;;387.48;163.63;;;;;;;9.10;89.52;100360.19;342137;28;944;-70
2022/11/10 00:31:48;;;;;;;388.80;164.07;;;;;;;9.10;89.54;100365.41;339732;28;1261;-71
2022/11/10 00:31:58;;;;;;;387.55;165.60;;;;;;;9.10;89.71;100366.22;341373;28;1368;-71
2022/11/10 00:32:09;;;;;;;387.47;165.47;;;;;;;9.10;89.44;100361.00;340900;29;822;-71
2022/11/10 00:32:19;;;;;;;384.65;164.30;;;;;;;9.12;89.88;100364.44;341070;28;1784;-71
2022/11/10 00:32:30;;;;;;;384.37;164.17;;;;;;;9.13;89.86;100357.47;340107;29;1480;-71
2022/11/10 00:32:40;;;;;;;385.23;164.93;;;;;;;9.15;89.57;100363.53;336822;29;948;-71
2022/11/10 00:32:50;;;;;;;385.40;163.93;;;;;;;9.14;89.79;100362.66;335106;29;3707;-71
2022/11/10 00:33:01;;;;;;;388.20;163.75;;;;;;;9.15;89.63;100358.31;336605;29;4935;-71
2022/11/10 00:33:12;;;;;;;390.03;165.13;;;;;;;9.15;89.47;100366.13;338934;29;1862;-72
2022/11/10 00:33:22;;;;;;;393.80;164.43;;;;;;;9.15;89.61;100363.53;335787;29;1757;-71
2022/11/10 00:33:36;;;;;;;391.40;163.83;;;;;;;9.15;89.12;100363.53;336086;29;4740;-71
2022/11/10 00:33:46;;;;;;;388.92;162.27;;;;;;;9.18;89.46;100363.44;336563;29;1117;-71
2022/11/10 00:33:57;;;;;;;388.13;162.65;;;;;;;9.17;89.74;100362.59;334176;29;1744;-71
2022/11/10 00:34:11;;;;;;;390.80;164.30;;;;;;;9.17;89.68;100359.13;334460;29;1028;-71
2022/11/10 00:34:21;;;;;;;384.55;161.52;;;;;;;9.17;89.70;100356.50;327017;30;865;-71
2022/11/10 00:34:32;;;;;;;380.75;162.23;;;;;;;9.20;89.63;100361.66;326670;30;1573;-71
2022/11/10 00:34:42;;;;;;;382.87;164.23;;;;;;;9.19;89.61;100359.94;326409;30;2111;-71
2022/11/10 00:34:52;;;;;;;387.95;166.90;;;;;;;9.20;89.25;100357.31;321017;30;1180;-71
2022/11/10 00:35:03;;;;;;;393.67;169.77;;;;;;;9.22;89.20;100358.13;328320;29;1868;-71
2022/11/10 00:35:14;;;;;;;390.70;167.57;;;;;;;9.22;88.96;100357.25;328092;30;1693;-71
2022/11/10 00:35:24;;;;;;;389.37;168.47;;;;;;;9.21;88.84;100360.78;325770;30;879;-71
2022/11/10 00:35:34;;;;;;;382.53;165.93;;;;;;;9.22;89.37;100365.97;326577;30;1223;-71
2022/11/10 00:35:45;;;;;;;387.30;165.17;;;;;;;9.22;89.36;100360.75;326951;30;1796;-72
2022/11/10 00:35:56;;;;;;;387.20;163.02;;;;;;;9.22;89.25;100359.88;325681;30;935;-71
2022/11/10 00:36:06;;;;;;;386.67;162.48;;;;;;;9.19;88.84;100360.81;325607;30;1491;-71
2022/11/10 00:36:17;;;;;;;385.35;165.40;;;;;;;9.16;89.20;100357.41;324279;30;2298;-72
2022/11/10 00:36:27;;;;;;;388.13;167.60;;;;;;;9.16;89.06;100365.25;327112;29;2322;-72
2022/11/10 00:36:38;;;;;;;388.38;166.73;;;;;;;9.17;89.11;100359.13;328082;30;1313;-71
2022/11/10 00:36:48;;;;;;;387.70;164.57;;;;;;;9.17;89.30;100359.13;324379;30;2117;-71
2022/11/10 00:36:58;;;;;;;389.13;162.23;;;;;;;9.16;89.09;100366.09;323785;30;2373;-71
2022/11/10 00:37:09;;;;;;;392.48;164.60;;;;;;;9.18;88.98;100353.00;323355;30;864;-71
2022/11/10 00:37:19;;;;;;;393.93;162.63;;;;;;;9.19;88.95;100354.72;324040;30;2427;-71
2022/11/10 00:37:30;;;;;;;390.73;161.15;;;;;;;9.19;89.27;100359.94;325353;30;1938;-71
2022/11/10 00:37:40;;;;;;;390.77;162.93;;;;;;;9.19;88.84;100359.94;324470;30;878;-71
2022/11/10 00:37:51;;;;;;;387.20;166.48;;;;;;;9.20;88.97;100359.91;319817;30;1533;-71
2022/11/10 00:38:01;;;;;;;389.00;166.40;;;;;;;9.20;88.95;100356.44;319128;30;1683;-71
2022/11/10 00:38:11;;;;;;;388.25;163.63;;;;;;;9.20;89.27;100356.44;316631;30;2219;-71
2022/11/10 00:38:22;;;;;;;388.60;161.70;;;;;;;9.19;88.94;100354.72;315022;31;1040;-71
2022/11/10 00:38:32;;;;;;;388.90;166.30;;;;;;;9.20;89.37;100356.44;313761;31;2890;-71
2022/11/10 00:38:43;;;;;;;389.13;167.77;;;;;;;9.19;89.36;100352.13;312873;31;3079;-71
2022/11/10 00:38:53;;;;;;;388.88;168.60;;;;;;;9.20;89.18;100361.66;314142;31;941;-71
2022/11/10 00:39:03;;;;;;;393.03;166.83;;;;;;;9.21;89.33;100355.56;309980;31;3013;-71
2022/11/10 00:39:14;;;;;;;392.97;164.53;;;;;;;9.23;89.44;100354.63;307597;31;3260;-71
2022/11/10 00:39:24;;;;;;;393.27;163.40;;;;;;;9.22;89.62;100359.88;308484;32;1545;-71
2022/11/10 00:39:35;;;;;;;387.23;163.07;;;;;;;9.21;89.33;100359.03;304114;32;3138;-71
2022/11/10 00:39:46;;;;;;;383.25;166.00;;;;;;;9.20;89.77;100353.84;304067;32;2412;-72
2022/11/10 00:39:56;;;;;;;381.17;167.35;;;;;;;9.20;89.61;100356.44;306904;32;2001;-71
2022/11/10 00:40:07;;;;;;;383.50;166.07;;;;;;;9.19;89.34;100357.34;306426;32;956;-70
2022/11/10 00:40:18;;;;;;;386.40;165.73;;;;;;;9.18;89.72;100350.41;306810;32;2510;-70
2022/11/10 00:40:28;;;;;;;388.27;163.32;;;;;;;9.19;89.90;100357.34;308367;31;3352;-70
2022/11/10 00:40:38;;;;;;;389.35;162.88;;;;;;;9.15;89.69;100356.53;307475;32;892;-70
2022/11/10 00:40:49;;;;;;;387.90;161.33;;;;;;;9.17;90.12;100348.69;304789;32;3167;-70
2022/11/10 00:40:59;;;;;;;386.37;161.80;;;;;;;9.17;90.13;100348.69;302545;32;3942;-70
2022/11/10 00:41:10;;;;;;;387.23;163.88;;;;;;;9.16;90.21;100350.44;303359;32;1531;-70
2022/11/10 00:41:20;;;;;;;389.40;166.57;;;;;;;9.15;89.79;100355.69;300312;32;4344;-70
2022/11/10 00:41:31;;;;;;;388.30;166.27;;;;;;;9.15;90.34;100350.47;297350;33;4770;-72
2022/11/10 00:41:41;;;;;;;388.60;168.20;;;;;;;9.15;89.72;100358.31;296463;32;4177;-72
2022/11/10 00:41:52;;;;;;;388.75;168.15;;;;;;;9.14;89.98;100353.97;302233;32;1040;-73
2022/11/10 00:42:02;;;;;;;389.40;168.43;;;;;;;9.12;90.30;100353.16;298403;32;4290;-72
2022/11/10 00:42:13;;;;;;;386.27;168.48;;;;;;;9.11;90.25;100359.25;297161;32;3048;-72
2022/11/10 00:42:23;;;;;;;386.65;170.02;;;;;;;9.11;90.14;100356.66;298127;33;994;-72
2022/11/10 00:42:33;;;;;;;387.20;170.50;;;;;;;9.09;89.66;100359.31;300137;32;4170;-72
2022/11/10 00:42:44;;;;;;;386.40;168.47;;;;;;;9.08;90.20;100356.75;300525;32;4853;-72
2022/11/10 00:42:54;;;;;;;385.20;166.40;;;;;;;9.08;90.12;100357.59;300030;32;1263;-72
2022/11/10 00:43:05;;;;;;;384.23;161.10;;;;;;;9.08;89.76;100356.75;293290;33;4798;-72
2022/11/10 00:43:15;;;;;;;387.48;160.90;;;;;;;9.07;90.30;100355.03;296715;32;5365;-72
2022/11/10 00:43:27;;;;;;;391.77;164.68;;;;;;;9.07;89.51;100360.25;296692;33;5812;-72
2022/11/10 00:43:37;;;;;;;392.35;167.60;;;;;;;9.05;89.59;100356.81;293642;33;940;-73
2022/11/10 00:43:47;;;;;;;392.03;169.60;;;;;;;9.07;89.66;100360.25;292400;33;5221;-71
2022/11/10 00:43:58;;;;;;;388.77;167.38;;;;;;;9.06;90.08;100358.53;290885;33;5591;-71
2022/11/10 00:44:09;;;;;;;388.05;165.30;;;;;;;9.08;90.00;100356.75;292742;33;2189;-71
2022/11/10 00:44:19;;;;;;;389.00;164.77;;;;;;;9.07;89.68;100355.03;286554;33;4708;-70
2022/11/10 00:44:29;;;;;;;390.20;164.40;;;;;;;9.03;89.58;100356.00;284190;34;4970;-70
2022/11/10 00:44:40;;;;;;;388.73;166.37;;;;;;;9.04;89.52;100360.31;285264;34;944;-71
2022/11/10 00:44:50;;;;;;;384.67;162.25;;;;;;;9.03;89.54;100354.25;282320;34;4944;-71
2022/11/10 00:45:01;;;;;;;383.70;162.37;;;;;;;9.04;89.75;100357.72;282987;34;6383;-70
2022/11/10 00:46:54;;;;;;;371.86;153.37;;;;;;;9.10;89.09;100354.97;2501597;27;20271;-71
2022/11/10 00:47:04;;;;;;;382.63;161.57;;;;;;;9.09;88.87;100353.25;353449;27;1575;-71
2022/11/10 00:47:14;;;;;;;382.83;163.30;;;;;;;9.11;89.00;100356.66;351836;28;870;-71
2022/11/10 00:47:25;;;;;;;385.77;166.30;;;;;;;9.09;88.79;100361.94;350407;28;936;-71
2022/11/10 00:47:35;;;;;;;383.35;165.43;;;;;;;9.10;88.55;100357.56;349439;28;1942;-71
2022/11/10 00:47:46;;;;;;;383.60;163.10;;;;;;;9.09;88.36;100353.25;349003;28;845;-71
2022/11/10 00:47:56;;;;;;;382.13;162.13;;;;;;;9.08;88.30;100356.75;348996;28;955;-71
2022/11/10 00:48:06;;;;;;;383.27;162.50;;;;;;;9.08;88.57;100357.59;347455;28;1197;-71
2022/11/10 00:48:17;;;;;;;382.33;161.67;;;;;;;9.09;88.51;100348.88;349175;28;1223;-72
2022/11/10 00:48:27;;;;;;;379.45;160.73;;;;;;;9.10;88.17;100354.97;349055;28;1105;-71
2022/11/10 00:48:38;;;;;;;377.55;160.30;;;;;;;9.10;88.11;100350.56;349439;28;1483;-71
2022/11/10 00:48:48;;;;;;;383.90;161.47;;;;;;;9.10;88.50;100349.75;349784;28;1491;-71
2022/11/10 00:48:59;;;;;;;388.37;162.97;;;;;;;9.09;88.33;100359.31;348970;28;976;-71
2022/11/10 00:49:09;;;;;;;387.92;161.40;;;;;;;9.09;88.53;100353.25;348969;28;982;-71
2022/11/10 00:49:19;;;;;;;381.53;158.87;;;;;;;9.07;88.36;100353.28;350895;28;1817;-71
2022/11/10 00:49:30;;;;;;;382.90;157.50;;;;;;;9.08;88.34;100351.53;351852;28;926;-71
2022/11/10 00:49:40;;;;;;;383.83;159.47;;;;;;;9.07;88.70;100361.13;348989;28;858;-71
2022/11/10 00:49:51;;;;;;;383.83;163.40;;;;;;;9.06;88.94;100353.31;347495;28;1502;-71
2022/11/10 00:50:01;;;;;;;381.60;162.60;;;;;;;9.04;88.75;100353.34;346276;28;916;-71
2022/11/10 00:50:11;;;;;;;384.52;161.52;;;;;;;9.05;88.99;100356.81;348938;28;1583;-71
2022/11/10 00:50:22;;;;;;;385.53;159.97;;;;;;;9.08;88.82;100359.38;350311;28;1260;-71
2022/11/10 00:50:32;;;;;;;387.57;163.90;;;;;;;9.06;89.26;100355.94;348879;28;898;-71
2022/11/10 00:50:43;;;;;;;385.65;165.48;;;;;;;9.05;89.05;100357.69;347496;28;987;-71
2022/11/10 00:50:54;;;;;;;382.90;165.77;;;;;;;9.05;89.24;100354.22;347746;28;912;-71
2022/11/10 00:51:04;;;;;;;380.77;161.13;;;;;;;9.03;89.03;100350.78;345660;28;1822;-71
2022/11/10 00:51:25;;;;;;;383.60;163.20;;;;;;;9.05;89.08;100354.22;344506;28;5200;-71
2022/11/10 00:51:35;;;;;;;387.00;167.45;;;;;;;9.04;89.26;100355.09;344809;28;1792;-71
2022/11/10 00:51:46;;;;;;;382.67;161.57;;;;;;;9.04;88.68;100350.75;347587;28;2924;-71
2022/11/10 00:51:56;;;;;;;378.95;160.02;;;;;;;9.04;88.94;100355.09;347576;28;2086;-70
2022/11/10 00:52:06;;;;;;;376.93;159.80;;;;;;;9.05;88.90;100351.59;345872;28;2337;-70
2022/11/10 00:52:17;;;;;;;380.52;162.55;;;;;;;9.04;89.25;100352.50;345458;28;982;-70
2022/11/10 00:52:27;;;;;;;388.30;164.73;;;;;;;9.03;89.03;100353.38;343454;28;1257;-71
2022/11/10 00:52:38;;;;;;;389.13;165.07;;;;;;;9.02;88.95;100347.31;339158;29;1782;-71
2022/11/10 00:52:48;;;;;;;389.27;165.77;;;;;;;9.03;88.63;100353.38;342974;28;1933;-71
2022/11/10 00:52:58;;;;;;;386.93;165.53;;;;;;;9.01;88.89;100356.03;343684;28;885;-71
2022/11/10 00:53:09;;;;;;;390.30;168.23;;;;;;;9.00;88.73;100355.16;342227;28;829;-73
2022/11/10 00:53:19;;;;;;;388.90;166.10;;;;;;;9.02;88.74;100356.88;340870;28;1392;-71
2022/11/10 00:53:29;;;;;;;387.35;164.18;;;;;;;9.03;88.84;100353.38;341595;28;1714;-72
2022/11/10 00:53:40;;;;;;;386.77;163.67;;;;;;;9.01;88.96;100356.03;340231;29;918;-71
2022/11/10 00:53:50;;;;;;;384.87;162.60;;;;;;;9.00;89.08;100349.09;340562;29;942;-71
2022/11/10 00:54:01;;;;;;;385.47;162.10;;;;;;;8.98;88.96;100354.34;339633;29;924;-72
2022/11/10 00:54:11;;;;;;;388.73;161.33;;;;;;;9.00;88.82;100354.31;336912;29;810;-71
2022/11/10 00:54:21;;;;;;;388.40;162.52;;;;;;;8.99;88.91;100356.06;337981;29;1840;-71
2022/11/10 00:54:32;;;;;;;389.40;162.13;;;;;;;8.99;88.90;100355.19;336809;29;1100;-71
2022/11/10 00:54:42;;;;;;;385.08;160.23;;;;;;;8.99;89.20;100350.84;335370;29;2014;-71
2022/11/10 00:54:53;;;;;;;387.77;160.50;;;;;;;8.99;88.67;100350.84;334422;29;851;-71
2022/11/10 00:55:04;;;;;;;385.30;163.30;;;;;;;8.99;89.34;100353.44;333203;29;1450;-71
2022/11/10 00:55:14;;;;;;;385.52;163.65;;;;;;;8.99;88.92;100347.38;331593;29;1472;-71
2022/11/10 00:55:24;;;;;;;385.67;161.03;;;;;;;8.99;88.62;100350.84;333211;29;930;-71
2022/11/10 00:55:38;;;;;;;386.65;157.75;;;;;;;9.00;88.62;100349.09;333477;29;1699;-71
2022/11/10 00:55:49;;;;;;;384.15;154.82;;;;;;;8.99;88.77;100353.44;333937;29;1984;-71
2022/11/10 00:55:59;;;;;;;386.50;158.57;;;;;;;8.99;88.98;100345.63;331814;29;946;-72
2022/11/10 00:56:10;;;;;;;386.80;160.60;;;;;;;9.00;88.45;100347.34;330624;29;1961;-72
2022/11/10 00:56:21;;;;;;;388.55;163.27;;;;;;;9.01;89.23;100350.81;333075;29;1295;-72